sensor_id;sensor_type;location;lat;lon;timestamp;P1;durP1;ratioP1;P2;durP2;ratioP2
12912;SDS011;6524;51.368;11.984;2024-03-02T00:01:01;40.55;;;26.02;;
12912;SDS011;6524;51.368;11.984;2024-03-02T00:06:01;41.40;;;26.00;;
12912;SDS011;6524;51.368;11.984;2024-03-02T00:11:02;38.90;;;24.30;;
12912;SDS011;6524;51.368;11.984;2024-03-02T00:16:03;37.42;;;25.23;;
12912;SDS011;6524;51.368;11.984;2024-03-02T00:21:06;40.50;;;25.40;;
12912;SDS011;6524;51.368;11.984;2024-03-02T00:26:10;37.80;;;24.48;;
12912;SDS011;6524;51.368;11.984;2024-03-02T00:31:12;39.10;;;25.90;;
12912;SDS011;6524;51.368;11.984;2024-03-02T00:36:21;43.10;;;28.27;;
12912;SDS011;6524;51.368;11.984;2024-03-02T00:41:29;40.80;;;27.08;;
12912;SDS011;6524;51.368;11.984;2024-03-02T00:46:33;41.45;;;26.27;;
12912;SDS011;6524;51.368;11.984;2024-03-02T00:51:37;43.10;;;26.80;;
12912;SDS011;6524;51.368;11.984;2024-03-02T00:56:39;44.47;;;27.80;;
12912;SDS011;6524;51.368;11.984;2024-03-02T05:04:08;29.95;;;20.60;;
12912;SDS011;6524;51.368;11.984;2024-03-02T05:09:11;39.17;;;25.00;;
12912;SDS011;6524;51.368;11.984;2024-03-02T05:14:11;41.20;;;27.10;;
12912;SDS011;6524;51.368;11.984;2024-03-02T05:19:12;37.73;;;23.87;;
12912;SDS011;6524;51.368;11.984;2024-03-02T05:24:12;25.93;;;18.30;;
12912;SDS011;6524;51.368;11.984;2024-03-02T05:29:12;28.02;;;19.45;;
12912;SDS011;6524;51.368;11.984;2024-03-02T05:34:14;28.33;;;19.60;;
12912;SDS011;6524;51.368;11.984;2024-03-02T05:39:14;45.50;;;28.77;;
12912;SDS011;6524;51.368;11.984;2024-03-02T05:44:15;45.23;;;26.57;;
12912;SDS011;6524;51.368;11.984;2024-03-02T05:49:15;52.60;;;29.73;;
12912;SDS011;6524;51.368;11.984;2024-03-02T05:54:16;64.93;;;36.10;;
12912;SDS011;6524;51.368;11.984;2024-03-02T05:59:16;63.53;;;36.80;;
12912;SDS011;6524;51.368;11.984;2024-03-02T06:04:17;59.37;;;33.90;;
12912;SDS011;6524;51.368;11.984;2024-03-02T06:09:17;35.47;;;20.83;;
12912;SDS011;6524;51.368;11.984;2024-03-02T06:14:20;25.13;;;17.10;;
12912;SDS011;6524;51.368;11.984;2024-03-02T06:19:20;24.55;;;16.63;;
12912;SDS011;6524;51.368;11.984;2024-03-02T06:24:20;24.52;;;17.45;;
12912;SDS011;6524;51.368;11.984;2024-03-02T06:29:20;26.10;;;17.63;;
12912;SDS011;6524;51.368;11.984;2024-03-02T06:34:21;26.25;;;17.08;;
12912;SDS011;6524;51.368;11.984;2024-03-02T06:39:22;24.38;;;17.33;;
12912;SDS011;6524;51.368;11.984;2024-03-02T06:44:22;24.63;;;17.83;;
12912;SDS011;6524;51.368;11.984;2024-03-02T06:49:23;26.48;;;17.13;;
12912;SDS011;6524;51.368;11.984;2024-03-02T06:54:23;29.25;;;19.83;;
12912;SDS011;6524;51.368;11.984;2024-03-02T06:59:23;32.22;;;20.67;;
12912;SDS011;6524;51.368;11.984;2024-03-02T07:04:24;30.80;;;20.65;;
12912;SDS011;6524;51.368;11.984;2024-03-02T07:09:25;28.83;;;20.17;;
12912;SDS011;6524;51.368;11.984;2024-03-02T07:14:25;28.52;;;18.15;;
12912;SDS011;6524;51.368;11.984;2024-03-02T07:19:46;28.65;;;18.38;;
12912;SDS011;6524;51.368;11.984;2024-03-02T07:24:46;30.27;;;19.15;;
12912;SDS011;6524;51.368;11.984;2024-03-02T07:29:47;32.30;;;20.45;;
12912;SDS011;6524;51.368;11.984;2024-03-02T07:34:47;32.53;;;21.05;;
12912;SDS011;6524;51.368;11.984;2024-03-02T07:39:47;31.42;;;20.55;;
12912;SDS011;6524;51.368;11.984;2024-03-02T07:44:48;30.38;;;20.52;;
12912;SDS011;6524;51.368;11.984;2024-03-02T07:49:48;34.30;;;22.42;;
12912;SDS011;6524;51.368;11.984;2024-03-02T07:54:49;33.67;;;22.30;;
12912;SDS011;6524;51.368;11.984;2024-03-02T07:59:50;35.25;;;22.02;;
12912;SDS011;6524;51.368;11.984;2024-03-02T08:04:51;35.38;;;22.75;;
12912;SDS011;6524;51.368;11.984;2024-03-02T08:09:51;36.00;;;23.08;;
12912;SDS011;6524;51.368;11.984;2024-03-02T08:14:51;35.20;;;22.63;;
12912;SDS011;6524;51.368;11.984;2024-03-02T08:19:52;33.55;;;23.38;;
12912;SDS011;6524;51.368;11.984;2024-03-02T08:24:53;34.65;;;22.95;;
12912;SDS011;6524;51.368;11.984;2024-03-02T08:29:54;31.73;;;20.75;;
12912;SDS011;6524;51.368;11.984;2024-03-02T08:34:54;33.72;;;21.50;;
12912;SDS011;6524;51.368;11.984;2024-03-02T08:39:55;30.35;;;21.13;;
12912;SDS011;6524;51.368;11.984;2024-03-02T08:44:55;33.80;;;21.83;;
12912;SDS011;6524;51.368;11.984;2024-03-02T08:49:55;30.77;;;20.88;;
12912;SDS011;6524;51.368;11.984;2024-03-02T08:54:56;36.20;;;23.67;;
12912;SDS011;6524;51.368;11.984;2024-03-02T08:59:56;31.25;;;20.88;;
12912;SDS011;6524;51.368;11.984;2024-03-02T09:04:57;31.95;;;21.50;;
12912;SDS011;6524;51.368;11.984;2024-03-02T09:10:00;30.50;;;21.42;;
12912;SDS011;6524;51.368;11.984;2024-03-02T09:15:04;29.13;;;20.70;;
12912;SDS011;6524;51.368;11.984;2024-03-02T09:20:07;31.70;;;21.10;;
12912;SDS011;6524;51.368;11.984;2024-03-02T09:25:15;29.83;;;20.52;;
12912;SDS011;6524;51.368;11.984;2024-03-02T09:30:21;28.95;;;20.25;;
12912;SDS011;6524;51.368;11.984;2024-03-02T09:35:21;32.03;;;20.75;;
12912;SDS011;6524;51.368;11.984;2024-03-02T09:40:24;27.33;;;19.58;;
12912;SDS011;6524;51.368;11.984;2024-03-02T09:45:29;28.05;;;19.67;;
12912;SDS011;6524;51.368;11.984;2024-03-02T09:50:30;27.25;;;19.38;;
12912;SDS011;6524;51.368;11.984;2024-03-02T09:55:30;30.13;;;20.40;;
12912;SDS011;6524;51.368;11.984;2024-03-02T10:00:30;26.75;;;19.40;;
12912;SDS011;6524;51.368;11.984;2024-03-02T10:05:31;28.95;;;19.75;;
12912;SDS011;6524;51.368;11.984;2024-03-02T10:10:38;26.80;;;18.77;;
12912;SDS011;6524;51.368;11.984;2024-03-02T10:15:43;26.48;;;18.42;;
12912;SDS011;6524;51.368;11.984;2024-03-02T10:20:43;24.50;;;17.95;;
12912;SDS011;6524;51.368;11.984;2024-03-02T10:25:45;25.83;;;18.48;;
12912;SDS011;6524;51.368;11.984;2024-03-02T10:30:47;27.52;;;19.30;;
12912;SDS011;6524;51.368;11.984;2024-03-02T10:35:49;27.00;;;18.27;;
12912;SDS011;6524;51.368;11.984;2024-03-02T10:40:50;25.17;;;17.67;;
12912;SDS011;6524;51.368;11.984;2024-03-02T10:45:50;22.33;;;16.90;;
12912;SDS011;6524;51.368;11.984;2024-03-02T10:50:52;22.98;;;17.10;;
12912;SDS011;6524;51.368;11.984;2024-03-02T10:55:58;21.13;;;16.55;;
12912;SDS011;6524;51.368;11.984;2024-03-02T11:01:04;20.10;;;15.13;;
12912;SDS011;6524;51.368;11.984;2024-03-02T11:06:07;19.33;;;15.00;;
12912;SDS011;6524;51.368;11.984;2024-03-02T11:11:15;19.55;;;14.75;;
12912;SDS011;6524;51.368;11.984;2024-03-02T11:16:26;18.58;;;13.45;;
12912;SDS011;6524;51.368;11.984;2024-03-02T11:21:37;20.17;;;14.52;;
12912;SDS011;6524;51.368;11.984;2024-03-02T11:26:38;16.58;;;12.23;;
12912;SDS011;6524;51.368;11.984;2024-03-02T11:37:14;14.27;;;11.98;;
12912;SDS011;6524;51.368;11.984;2024-03-02T11:42:15;13.00;;;11.27;;
12912;SDS011;6524;51.368;11.984;2024-03-02T11:47:17;12.52;;;11.00;;
12912;SDS011;6524;51.368;11.984;2024-03-02T11:52:18;11.57;;;10.35;;
12912;SDS011;6524;51.368;11.984;2024-03-02T11:57:19;11.70;;;10.48;;
12912;SDS011;6524;51.368;11.984;2024-03-02T12:02:24;12.27;;;11.07;;
12912;SDS011;6524;51.368;11.984;2024-03-02T12:07:25;11.33;;;10.23;;
12912;SDS011;6524;51.368;11.984;2024-03-02T12:12:25;12.82;;;11.48;;
12912;SDS011;6524;51.368;11.984;2024-03-02T12:17:26;12.70;;;11.45;;
12912;SDS011;6524;51.368;11.984;2024-03-02T12:22:27;13.93;;;12.25;;
12912;SDS011;6524;51.368;11.984;2024-03-02T12:27:31;12.68;;;11.43;;
12912;SDS011;6524;51.368;11.984;2024-03-02T12:32:36;14.00;;;12.60;;
12912;SDS011;6524;51.368;11.984;2024-03-02T12:37:45;12.80;;;11.43;;
12912;SDS011;6524;51.368;11.984;2024-03-02T12:42:48;13.07;;;11.45;;
12912;SDS011;6524;51.368;11.984;2024-03-02T12:47:49;13.60;;;12.10;;
12912;SDS011;6524;51.368;11.984;2024-03-02T12:52:52;12.88;;;10.93;;
12912;SDS011;6524;51.368;11.984;2024-03-02T12:57:54;12.65;;;11.35;;
12912;SDS011;6524;51.368;11.984;2024-03-02T13:02:56;12.27;;;10.82;;
12912;SDS011;6524;51.368;11.984;2024-03-02T13:08:02;11.07;;;9.85;;
12912;SDS011;6524;51.368;11.984;2024-03-02T13:13:04;10.70;;;9.52;;
12912;SDS011;6524;51.368;11.984;2024-03-02T13:18:07;11.10;;;9.75;;
12912;SDS011;6524;51.368;11.984;2024-03-02T13:23:12;11.85;;;9.60;;
12912;SDS011;6524;51.368;11.984;2024-03-02T13:28:12;11.27;;;9.13;;
12912;SDS011;6524;51.368;11.984;2024-03-02T13:33:13;10.07;;;8.82;;
12912;SDS011;6524;51.368;11.984;2024-03-02T13:38:16;10.57;;;8.73;;
12912;SDS011;6524;51.368;11.984;2024-03-02T13:43:20;9.10;;;7.95;;
12912;SDS011;6524;51.368;11.984;2024-03-02T13:48:21;8.27;;;7.38;;
12912;SDS011;6524;51.368;11.984;2024-03-02T13:53:21;9.77;;;7.75;;
12912;SDS011;6524;51.368;11.984;2024-03-02T13:58:21;9.02;;;8.13;;
12912;SDS011;6524;51.368;11.984;2024-03-02T14:03:24;8.63;;;7.70;;
12912;SDS011;6524;51.368;11.984;2024-03-02T14:08:24;8.70;;;7.60;;
12912;SDS011;6524;51.368;11.984;2024-03-02T14:13:27;11.50;;;7.80;;
12912;SDS011;6524;51.368;11.984;2024-03-02T14:18:32;10.35;;;8.15;;
12912;SDS011;6524;51.368;11.984;2024-03-02T14:23:33;11.55;;;8.25;;
12912;SDS011;6524;51.368;11.984;2024-03-02T14:28:36;9.73;;;7.85;;
12912;SDS011;6524;51.368;11.984;2024-03-02T14:33:36;9.25;;;7.93;;
12912;SDS011;6524;51.368;11.984;2024-03-02T14:38:37;9.32;;;7.97;;
12912;SDS011;6524;51.368;11.984;2024-03-02T14:43:38;9.73;;;7.10;;
12912;SDS011;6524;51.368;11.984;2024-03-02T14:48:44;8.95;;;7.57;;
12912;SDS011;6524;51.368;11.984;2024-03-02T14:54:30;9.20;;;7.38;;
12912;SDS011;6524;51.368;11.984;2024-03-02T14:59:30;8.60;;;6.95;;
12912;SDS011;6524;51.368;11.984;2024-03-02T15:04:32;8.52;;;7.30;;
12912;SDS011;6524;51.368;11.984;2024-03-02T15:09:33;9.43;;;7.13;;
12912;SDS011;6524;51.368;11.984;2024-03-02T15:14:36;9.98;;;7.10;;
12912;SDS011;6524;51.368;11.984;2024-03-02T15:19:45;8.98;;;6.40;;
12912;SDS011;6524;51.368;11.984;2024-03-02T15:24:49;8.60;;;7.35;;
12912;SDS011;6524;51.368;11.984;2024-03-02T15:29:56;11.13;;;9.70;;
12912;SDS011;6524;51.368;11.984;2024-03-02T15:34:58;9.45;;;8.20;;
12912;SDS011;6524;51.368;11.984;2024-03-02T15:40:01;9.27;;;7.97;;
12912;SDS011;6524;51.368;11.984;2024-03-02T15:45:13;10.02;;;8.07;;
12912;SDS011;6524;51.368;11.984;2024-03-02T15:50:14;8.25;;;6.25;;
12912;SDS011;6524;51.368;11.984;2024-03-02T15:55:17;7.53;;;6.05;;
12912;SDS011;6524;51.368;11.984;2024-03-02T16:00:24;13.38;;;9.57;;
12912;SDS011;6524;51.368;11.984;2024-03-02T16:05:55;7.40;;;6.25;;
12912;SDS011;6524;51.368;11.984;2024-03-02T16:11:01;8.70;;;7.90;;
12912;SDS011;6524;51.368;11.984;2024-03-02T16:16:20;8.05;;;6.70;;
12912;SDS011;6524;51.368;11.984;2024-03-02T16:21:41;8.50;;;5.68;;
12912;SDS011;6524;51.368;11.984;2024-03-02T16:27:10;8.23;;;6.80;;
12912;SDS011;6524;51.368;11.984;2024-03-02T16:32:37;9.77;;;7.18;;
12912;SDS011;6524;51.368;11.984;2024-03-02T16:37:39;8.73;;;7.35;;
12912;SDS011;6524;51.368;11.984;2024-03-02T16:42:42;8.30;;;7.18;;
12912;SDS011;6524;51.368;11.984;2024-03-02T16:47:58;9.18;;;7.07;;
12912;SDS011;6524;51.368;11.984;2024-03-02T16:53:44;8.73;;;6.90;;
12912;SDS011;6524;51.368;11.984;2024-03-02T16:58:49;7.25;;;6.53;;
12912;SDS011;6524;51.368;11.984;2024-03-02T17:03:50;12.35;;;10.02;;
12912;SDS011;6524;51.368;11.984;2024-03-02T17:08:50;10.50;;;8.75;;
12912;SDS011;6524;51.368;11.984;2024-03-02T17:13:51;10.35;;;8.45;;
12912;SDS011;6524;51.368;11.984;2024-03-02T17:18:57;10.30;;;8.73;;
12912;SDS011;6524;51.368;11.984;2024-03-02T17:23:58;9.73;;;8.18;;
12912;SDS011;6524;51.368;11.984;2024-03-02T17:28:58;9.45;;;7.78;;
12912;SDS011;6524;51.368;11.984;2024-03-02T17:33:59;14.00;;;9.63;;
12912;SDS011;6524;51.368;11.984;2024-03-02T17:39:00;15.27;;;11.15;;
12912;SDS011;6524;51.368;11.984;2024-03-02T17:44:03;18.48;;;14.77;;
12912;SDS011;6524;51.368;11.984;2024-03-02T17:49:04;13.05;;;11.07;;
12912;SDS011;6524;51.368;11.984;2024-03-02T17:54:04;14.13;;;10.20;;
12912;SDS011;6524;51.368;11.984;2024-03-02T17:59:05;12.23;;;10.55;;
12912;SDS011;6524;51.368;11.984;2024-03-02T18:04:06;12.00;;;10.52;;
12912;SDS011;6524;51.368;11.984;2024-03-02T18:09:07;16.80;;;12.25;;
12912;SDS011;6524;51.368;11.984;2024-03-02T18:14:08;19.38;;;13.77;;
12912;SDS011;6524;51.368;11.984;2024-03-02T18:19:10;19.92;;;15.75;;
12912;SDS011;6524;51.368;11.984;2024-03-02T18:24:10;20.63;;;15.48;;
12912;SDS011;6524;51.368;11.984;2024-03-02T18:29:11;22.30;;;16.73;;
12912;SDS011;6524;51.368;11.984;2024-03-02T18:34:11;17.33;;;14.20;;
12912;SDS011;6524;51.368;11.984;2024-03-02T18:39:14;18.38;;;14.13;;
12912;SDS011;6524;51.368;11.984;2024-03-02T18:44:15;20.95;;;14.90;;
12912;SDS011;6524;51.368;11.984;2024-03-02T18:49:15;20.58;;;15.27;;
12912;SDS011;6524;51.368;11.984;2024-03-02T18:54:18;21.83;;;16.85;;
12912;SDS011;6524;51.368;11.984;2024-03-02T18:59:18;21.33;;;16.90;;
12912;SDS011;6524;51.368;11.984;2024-03-02T19:04:19;24.65;;;18.10;;
12912;SDS011;6524;51.368;11.984;2024-03-02T19:09:19;26.65;;;19.55;;
12912;SDS011;6524;51.368;11.984;2024-03-02T19:14:20;29.65;;;20.08;;
12912;SDS011;6524;51.368;11.984;2024-03-02T19:19:20;26.23;;;18.95;;
12912;SDS011;6524;51.368;11.984;2024-03-02T19:24:20;30.25;;;19.90;;
12912;SDS011;6524;51.368;11.984;2024-03-02T19:29:21;28.38;;;18.92;;
12912;SDS011;6524;51.368;11.984;2024-03-02T19:34:23;28.25;;;18.55;;
12912;SDS011;6524;51.368;11.984;2024-03-02T19:39:25;30.83;;;20.15;;
12912;SDS011;6524;51.368;11.984;2024-03-02T19:44:30;29.45;;;19.50;;
12912;SDS011;6524;51.368;11.984;2024-03-02T19:49:32;31.42;;;19.88;;
12912;SDS011;6524;51.368;11.984;2024-03-02T19:54:33;29.37;;;21.17;;
12912;SDS011;6524;51.368;11.984;2024-03-02T19:59:33;30.90;;;20.45;;
12912;SDS011;6524;51.368;11.984;2024-03-02T20:04:33;33.80;;;21.38;;
12912;SDS011;6524;51.368;11.984;2024-03-02T20:09:34;32.58;;;21.52;;
12912;SDS011;6524;51.368;11.984;2024-03-02T20:14:34;32.45;;;21.70;;
12912;SDS011;6524;51.368;11.984;2024-03-02T20:19:39;28.17;;;20.10;;
12912;SDS011;6524;51.368;11.984;2024-03-02T20:24:40;31.85;;;20.60;;
12912;SDS011;6524;51.368;11.984;2024-03-02T20:29:43;31.77;;;20.42;;
12912;SDS011;6524;51.368;11.984;2024-03-02T20:34:43;36.63;;;21.57;;
12912;SDS011;6524;51.368;11.984;2024-03-02T20:39:43;32.30;;;20.83;;
12912;SDS011;6524;51.368;11.984;2024-03-02T20:44:44;31.13;;;21.70;;
12912;SDS011;6524;51.368;11.984;2024-03-02T20:49:44;34.55;;;22.10;;
12912;SDS011;6524;51.368;11.984;2024-03-02T20:54:44;35.05;;;23.00;;
12912;SDS011;6524;51.368;11.984;2024-03-02T20:59:45;35.15;;;22.38;;
12912;SDS011;6524;51.368;11.984;2024-03-02T21:04:46;30.52;;;21.08;;
12912;SDS011;6524;51.368;11.984;2024-03-02T21:09:47;31.45;;;21.70;;
12912;SDS011;6524;51.368;11.984;2024-03-02T21:14:48;31.60;;;21.73;;
12912;SDS011;6524;51.368;11.984;2024-03-02T21:19:48;30.13;;;21.77;;
12912;SDS011;6524;51.368;11.984;2024-03-02T21:24:50;33.38;;;22.48;;
12912;SDS011;6524;51.368;11.984;2024-03-02T21:29:51;33.72;;;22.45;;
12912;SDS011;6524;51.368;11.984;2024-03-02T21:34:51;33.30;;;21.95;;
12912;SDS011;6524;51.368;11.984;2024-03-02T21:39:52;33.72;;;22.45;;
12912;SDS011;6524;51.368;11.984;2024-03-02T21:44:52;31.65;;;22.58;;
12912;SDS011;6524;51.368;11.984;2024-03-02T21:49:52;36.50;;;24.15;;
12912;SDS011;6524;51.368;11.984;2024-03-02T21:54:53;35.10;;;25.70;;
12912;SDS011;6524;51.368;11.984;2024-03-02T21:59:53;35.85;;;24.38;;
12912;SDS011;6524;51.368;11.984;2024-03-02T22:04:53;37.08;;;23.35;;
12912;SDS011;6524;51.368;11.984;2024-03-02T22:09:54;33.03;;;22.48;;
12912;SDS011;6524;51.368;11.984;2024-03-02T22:14:57;35.67;;;23.30;;
12912;SDS011;6524;51.368;11.984;2024-03-02T22:19:57;36.55;;;23.10;;
12912;SDS011;6524;51.368;11.984;2024-03-02T22:24:58;31.50;;;21.65;;
12912;SDS011;6524;51.368;11.984;2024-03-02T22:29:58;36.63;;;23.13;;
12912;SDS011;6524;51.368;11.984;2024-03-02T22:34:59;35.50;;;23.08;;
12912;SDS011;6524;51.368;11.984;2024-03-02T22:39:59;35.53;;;22.77;;
12912;SDS011;6524;51.368;11.984;2024-03-02T22:45:00;34.45;;;23.13;;
12912;SDS011;6524;51.368;11.984;2024-03-02T22:50:00;35.83;;;22.92;;
12912;SDS011;6524;51.368;11.984;2024-03-02T22:55:01;32.50;;;22.88;;
12912;SDS011;6524;51.368;11.984;2024-03-02T23:00:02;34.55;;;22.63;;
12912;SDS011;6524;51.368;11.984;2024-03-02T23:05:20;34.53;;;22.42;;
12912;SDS011;6524;51.368;11.984;2024-03-02T23:10:21;36.22;;;21.88;;
12912;SDS011;6524;51.368;11.984;2024-03-02T23:15:21;37.63;;;24.35;;
12912;SDS011;6524;51.368;11.984;2024-03-02T23:20:23;37.97;;;23.75;;
12912;SDS011;6524;51.368;11.984;2024-03-02T23:25:24;35.20;;;23.23;;
12912;SDS011;6524;51.368;11.984;2024-03-02T23:30:24;35.10;;;23.63;;
12912;SDS011;6524;51.368;11.984;2024-03-02T23:35:25;34.42;;;22.52;;
12912;SDS011;6524;51.368;11.984;2024-03-02T23:40:25;33.20;;;22.43;;
12912;SDS011;6524;51.368;11.984;2024-03-02T23:45:38;32.08;;;20.73;;
12912;SDS011;6524;51.368;11.984;2024-03-02T23:50:38;33.20;;;21.75;;
12912;SDS011;6524;51.368;11.984;2024-03-02T23:55:39;30.53;;;20.40;;
